createdAt,value
2019-02-17T00:00:54.762Z,0.00
2019-02-17T00:01:54.754Z,0.00
2019-02-17T00:02:54.748Z,0.00
2019-02-17T00:03:54.740Z,0.00
2019-02-17T00:04:54.730Z,0.00
2019-02-17T00:05:54.724Z,0.00
2019-02-17T00:06:54.719Z,0.00
2019-02-17T00:07:54.709Z,0.00
2019-02-17T00:08:54.700Z,0.00
2019-02-17T00:09:54.693Z,0.00
2019-02-17T00:10:54.686Z,0.00
2019-02-17T00:11:54.678Z,0.00
2019-02-17T00:12:54.669Z,0.00
2019-02-17T00:13:54.671Z,0.00
2019-02-17T00:14:54.657Z,0.00
2019-02-17T00:15:54.647Z,0.00
2019-02-17T00:16:54.639Z,0.00
2019-02-17T00:17:54.630Z,0.00
2019-02-17T00:18:54.623Z,0.00
2019-02-17T00:19:54.616Z,0.00
2019-02-17T00:20:54.608Z,0.00
2019-02-17T00:21:54.600Z,0.00
2019-02-17T00:22:54.591Z,0.00
2019-02-17T00:23:54.585Z,0.00
2019-02-17T00:24:54.575Z,0.00
2019-02-17T00:25:54.569Z,0.00
2019-02-17T00:26:54.562Z,0.00
2019-02-17T00:27:54.556Z,0.00
2019-02-17T00:28:59.416Z,0.00
2019-02-17T00:29:54.537Z,0.00
2019-02-17T00:30:54.530Z,0.00
2019-02-17T00:31:54.521Z,0.00
2019-02-17T00:32:54.514Z,0.00
2019-02-17T00:33:54.507Z,0.00
2019-02-17T00:34:54.499Z,0.00
2019-02-17T00:35:54.490Z,0.00
2019-02-17T00:36:54.481Z,0.00
2019-02-17T00:37:54.474Z,0.00
2019-02-17T00:38:54.467Z,0.00
2019-02-17T00:39:54.459Z,0.00
2019-02-17T00:40:54.452Z,0.00
2019-02-17T00:41:54.443Z,0.00
2019-02-17T00:42:54.436Z,0.00
2019-02-17T00:43:54.427Z,0.00
2019-02-17T00:44:54.421Z,0.00
2019-02-17T00:45:54.414Z,0.00
2019-02-17T00:46:54.403Z,0.00
2019-02-17T00:47:54.398Z,0.00
2019-02-17T00:48:54.388Z,0.00
2019-02-17T00:49:54.380Z,0.00
2019-02-17T00:50:54.373Z,0.00
2019-02-17T00:51:54.366Z,0.00
2019-02-17T00:52:54.392Z,0.00
2019-02-17T00:53:54.348Z,0.00
2019-02-17T00:54:54.340Z,0.00
2019-02-17T00:55:54.333Z,0.00
2019-02-17T00:56:54.326Z,0.00
2019-02-17T00:57:54.317Z,0.00
2019-02-17T00:58:54.309Z,0.00
2019-02-17T00:59:54.301Z,0.00
2019-02-17T01:00:56.064Z,0.00
2019-02-17T01:01:54.289Z,0.00
2019-02-17T01:02:54.281Z,0.00
2019-02-17T01:03:54.275Z,0.00
2019-02-17T01:04:54.263Z,0.00
2019-02-17T01:05:54.256Z,0.00
2019-02-17T01:06:54.251Z,0.00
2019-02-17T01:07:54.241Z,0.00
2019-02-17T01:08:54.233Z,0.00
2019-02-17T01:09:54.227Z,0.00
2019-02-17T01:10:54.217Z,0.00
2019-02-17T01:11:54.208Z,0.00
2019-02-17T01:12:54.200Z,0.00
2019-02-17T01:13:54.193Z,0.00
2019-02-17T01:14:54.184Z,0.00
2019-02-17T01:15:54.177Z,0.00
2019-02-17T01:16:54.168Z,0.00
2019-02-17T01:17:54.162Z,0.00
2019-02-17T01:18:54.155Z,0.00
2019-02-17T01:19:54.144Z,0.00
2019-02-17T01:20:54.135Z,0.00
2019-02-17T01:21:54.128Z,0.00
2019-02-17T01:22:54.122Z,0.00
2019-02-17T01:23:54.112Z,0.00
2019-02-17T01:24:54.104Z,0.00
2019-02-17T01:25:54.097Z,0.00
2019-02-17T01:26:54.087Z,0.00
2019-02-17T01:27:54.080Z,0.00
2019-02-17T01:28:54.071Z,0.00
2019-02-17T01:29:54.062Z,0.00
2019-02-17T01:30:54.055Z,0.00
2019-02-17T01:31:54.047Z,0.00
2019-02-17T01:32:54.045Z,0.00
2019-02-17T01:33:54.031Z,0.00
2019-02-17T01:34:54.022Z,0.00
2019-02-17T01:35:54.014Z,0.00
2019-02-17T01:36:54.006Z,0.00
2019-02-17T01:37:54.000Z,0.00
2019-02-17T01:38:53.993Z,0.00
2019-02-17T01:39:53.983Z,0.00
2019-02-17T01:40:53.975Z,0.00
2019-02-17T01:41:53.965Z,0.00
2019-02-17T01:42:53.958Z,0.00
2019-02-17T01:43:53.950Z,0.00
2019-02-17T01:44:53.941Z,0.00
2019-02-17T01:45:53.933Z,0.00
2019-02-17T01:46:53.925Z,0.00
2019-02-17T01:47:53.918Z,0.00
2019-02-17T01:48:53.909Z,0.00
2019-02-17T01:49:53.901Z,0.00
2019-02-17T01:50:53.895Z,0.00
2019-02-17T01:51:53.885Z,0.00
2019-02-17T01:52:53.875Z,0.00
2019-02-17T01:53:53.868Z,0.00
2019-02-17T01:54:53.865Z,0.00
2019-02-17T01:55:53.852Z,0.00
2019-02-17T01:56:53.844Z,0.00
2019-02-17T01:57:53.835Z,0.00
2019-02-17T01:58:53.827Z,0.00
2019-02-17T01:59:53.820Z,0.00
2019-02-17T02:00:53.811Z,0.00
2019-02-17T02:01:53.802Z,0.00
2019-02-17T02:02:53.794Z,0.00
2019-02-17T02:03:53.788Z,0.00
2019-02-17T02:04:53.778Z,0.00
2019-02-17T02:05:53.771Z,0.00
2019-02-17T02:06:53.762Z,0.00
2019-02-17T02:07:53.755Z,0.00
2019-02-17T02:08:53.748Z,0.00
2019-02-17T02:09:53.737Z,0.00
2019-02-17T02:10:53.731Z,0.00
2019-02-17T02:11:53.723Z,0.00
2019-02-17T02:12:53.713Z,0.00
2019-02-17T02:13:53.706Z,0.00
2019-02-17T02:14:53.701Z,0.00
2019-02-17T02:15:53.689Z,0.00
2019-02-17T02:16:53.680Z,0.00
2019-02-17T02:17:53.672Z,0.00
2019-02-17T02:18:53.666Z,0.00
2019-02-17T02:19:53.658Z,0.00
2019-02-17T02:20:53.648Z,0.00
2019-02-17T02:21:53.640Z,0.00
2019-02-17T02:22:53.632Z,0.00
2019-02-17T02:23:53.624Z,0.00
2019-02-17T02:24:53.617Z,0.00
2019-02-17T02:25:53.608Z,0.00
2019-02-17T02:26:53.602Z,0.00
2019-02-17T02:27:53.593Z,0.00
2019-02-17T02:28:53.583Z,0.00
2019-02-17T02:29:53.575Z,0.00
2019-02-17T02:30:53.568Z,0.00
2019-02-17T02:31:53.558Z,0.00
2019-02-17T02:32:53.549Z,0.00
2019-02-17T02:33:53.541Z,0.00
2019-02-17T02:34:53.538Z,0.00
2019-02-17T02:35:53.527Z,0.00
2019-02-17T02:36:53.516Z,0.00
2019-02-17T02:37:53.509Z,0.00
2019-02-17T02:38:53.501Z,0.00
2019-02-17T02:39:53.496Z,0.00
2019-02-17T02:40:53.484Z,0.00
2019-02-17T02:41:53.476Z,0.00
2019-02-17T02:42:53.468Z,0.00
2019-02-17T02:43:53.460Z,0.00
2019-02-17T02:44:53.450Z,0.00
2019-02-17T02:45:53.441Z,0.00
2019-02-17T02:46:53.435Z,0.00
2019-02-17T02:47:53.429Z,0.00
2019-02-17T02:48:53.419Z,0.00
2019-02-17T02:49:53.410Z,0.00
2019-02-17T02:50:53.468Z,0.00
2019-02-17T02:51:53.396Z,0.00
2019-02-17T02:52:53.383Z,0.00
2019-02-17T02:53:53.377Z,0.00
2019-02-17T02:54:53.368Z,0.00
2019-02-17T02:55:53.361Z,0.00
2019-02-17T02:56:53.351Z,0.00
2019-02-17T02:57:53.345Z,0.00
2019-02-17T02:58:53.342Z,0.00
2019-02-17T02:59:53.327Z,0.00
2019-02-17T03:00:53.317Z,0.00
2019-02-17T03:01:53.312Z,0.00
2019-02-17T03:02:53.303Z,0.00
2019-02-17T03:03:53.295Z,0.00
2019-02-17T03:04:53.286Z,0.00
2019-02-17T03:05:53.279Z,0.00
2019-02-17T03:06:53.270Z,0.00
2019-02-17T03:07:53.261Z,0.00
2019-02-17T03:08:53.254Z,0.00
2019-02-17T03:09:53.244Z,0.00
2019-02-17T03:10:53.236Z,0.00
2019-02-17T03:11:53.229Z,0.00
2019-02-17T03:12:53.218Z,0.00
2019-02-17T03:13:53.211Z,0.00
2019-02-17T03:14:53.204Z,0.00
2019-02-17T03:15:53.194Z,0.00
2019-02-17T03:16:53.187Z,0.00
2019-02-17T03:17:53.180Z,0.00
2019-02-17T03:18:53.170Z,0.00
2019-02-17T03:19:53.208Z,0.00
2019-02-17T03:20:53.154Z,0.00
2019-02-17T03:21:53.152Z,0.00
2019-02-17T03:22:53.137Z,0.00
2019-02-17T03:23:53.128Z,0.00
2019-02-17T03:24:53.121Z,0.00
2019-02-17T03:25:53.113Z,0.00
2019-02-17T03:26:53.113Z,0.00
2019-02-17T03:27:53.096Z,0.00
2019-02-17T03:28:53.088Z,0.00
2019-02-17T03:30:04.024Z,0.00
2019-02-17T03:30:53.083Z,0.00
2019-02-17T03:31:53.063Z,0.00
2019-02-17T03:32:53.054Z,0.00
2019-02-17T03:33:53.048Z,0.00
2019-02-17T03:34:53.037Z,0.00
2019-02-17T03:35:53.030Z,0.00
2019-02-17T03:36:53.021Z,0.00
2019-02-17T03:37:53.011Z,0.00
2019-02-17T03:38:53.004Z,0.00
2019-02-17T03:39:52.997Z,0.00
2019-02-17T03:40:52.987Z,0.00
2019-02-17T03:41:52.980Z,0.00
2019-02-17T03:42:52.971Z,0.00
2019-02-17T03:43:52.963Z,0.00
2019-02-17T03:44:52.953Z,0.00
2019-02-17T03:45:52.946Z,0.00
2019-02-17T03:46:52.938Z,0.00
2019-02-17T03:47:52.934Z,0.00
2019-02-17T03:48:52.920Z,0.00
2019-02-17T03:49:52.913Z,0.00
2019-02-17T03:50:52.906Z,0.00
2019-02-17T03:51:52.897Z,0.00
2019-02-17T03:52:52.887Z,0.00
2019-02-17T03:53:52.889Z,0.00
2019-02-17T03:54:52.871Z,0.00
2019-02-17T03:55:52.873Z,0.00
2019-02-17T03:56:52.855Z,0.00
2019-02-17T03:57:52.848Z,0.00
2019-02-17T03:58:52.840Z,0.00
2019-02-17T03:59:52.835Z,0.00
2019-02-17T04:00:52.822Z,0.00
2019-02-17T04:01:52.815Z,0.00
2019-02-17T04:02:52.805Z,0.00
2019-02-17T04:03:52.797Z,0.00
2019-02-17T04:04:52.790Z,0.00
2019-02-17T04:05:52.784Z,0.00
2019-02-17T04:06:52.773Z,0.00
2019-02-17T04:07:52.765Z,0.00
2019-02-17T04:08:52.755Z,0.00
2019-02-17T04:09:52.747Z,0.00
2019-02-17T04:10:52.739Z,0.00
2019-02-17T04:11:52.731Z,0.00
2019-02-17T04:12:52.723Z,0.00
2019-02-17T04:13:52.714Z,0.00
2019-02-17T04:14:52.705Z,0.00
2019-02-17T04:15:52.698Z,0.00
2019-02-17T04:16:52.689Z,0.00
2019-02-17T04:17:52.684Z,0.00
2019-02-17T04:18:52.674Z,0.00
2019-02-17T04:19:52.672Z,0.00
2019-02-17T04:20:52.656Z,0.00
2019-02-17T04:21:52.647Z,0.00
2019-02-17T04:22:52.639Z,0.00
2019-02-17T04:23:52.634Z,0.00
2019-02-17T04:24:52.623Z,0.00
2019-02-17T04:25:52.617Z,0.00
2019-02-17T04:26:52.607Z,0.00
2019-02-17T04:27:52.599Z,0.00
2019-02-17T04:28:52.590Z,0.00
2019-02-17T04:29:52.581Z,0.00
2019-02-17T04:30:52.573Z,0.00
2019-02-17T04:31:52.566Z,0.00
2019-02-17T04:32:52.556Z,0.00
2019-02-17T04:33:52.548Z,0.00
2019-02-17T04:34:52.548Z,0.00
2019-02-17T04:35:52.532Z,0.00
2019-02-17T04:36:52.524Z,0.00
2019-02-17T04:37:52.518Z,0.00
2019-02-17T04:38:52.508Z,0.00
2019-02-17T04:39:52.507Z,0.00
2019-02-17T04:40:52.491Z,0.00
2019-02-17T04:41:52.484Z,0.00
2019-02-17T04:42:52.474Z,0.00
2019-02-17T04:43:52.467Z,0.00
2019-02-17T04:44:52.456Z,0.00
2019-02-17T04:45:52.449Z,0.00
2019-02-17T04:46:52.441Z,0.00
2019-02-17T04:47:52.431Z,0.00
2019-02-17T04:48:52.424Z,0.00
2019-02-17T04:49:52.418Z,0.00
2019-02-17T04:50:52.408Z,0.00
2019-02-17T04:51:52.405Z,0.00
2019-02-17T04:52:52.393Z,0.00
2019-02-17T04:53:52.389Z,0.00
2019-02-17T04:54:52.374Z,0.00
2019-02-17T04:55:52.374Z,0.00
2019-02-17T04:56:52.386Z,0.00
2019-02-17T04:57:52.350Z,0.00
2019-02-17T04:58:52.340Z,0.00
2019-02-17T04:59:52.333Z,0.00
2019-02-17T05:00:52.323Z,0.00
2019-02-17T05:01:52.317Z,0.00
2019-02-17T05:02:52.308Z,0.00
2019-02-17T05:03:52.301Z,0.00
2019-02-17T05:04:52.290Z,0.00
2019-02-17T05:05:52.282Z,0.00
2019-02-17T05:06:52.274Z,0.00
2019-02-17T05:07:52.271Z,0.00
2019-02-17T05:08:52.256Z,0.00
2019-02-17T05:09:52.249Z,0.00
2019-02-17T05:10:52.242Z,0.00
2019-02-17T05:11:52.232Z,0.00
2019-02-17T05:12:52.224Z,0.00
2019-02-17T05:13:52.216Z,0.00
2019-02-17T05:14:52.207Z,0.00
2019-02-17T05:15:52.200Z,0.00
2019-02-17T05:16:52.190Z,0.00
2019-02-17T05:17:52.186Z,0.00
2019-02-17T05:18:52.173Z,0.00
2019-02-17T05:19:52.166Z,0.00
2019-02-17T05:20:52.157Z,0.00
2019-02-17T05:21:52.148Z,0.00
2019-02-17T05:22:52.141Z,0.00
2019-02-17T05:23:52.133Z,0.00
2019-02-17T05:24:52.123Z,0.00
2019-02-17T05:25:52.115Z,0.00
2019-02-17T05:26:52.107Z,0.00
2019-02-17T05:27:52.097Z,0.00
2019-02-17T05:28:52.091Z,0.00
2019-02-17T05:29:52.083Z,0.00
2019-02-17T05:30:53.331Z,0.00
2019-02-17T05:31:52.068Z,0.00
2019-02-17T05:32:52.055Z,0.00
2019-02-17T05:33:52.047Z,0.00
2019-02-17T05:34:52.051Z,0.00
2019-02-17T05:35:52.033Z,0.00
2019-02-17T05:36:52.025Z,0.00
2019-02-17T05:37:52.013Z,0.00
2019-02-17T05:38:52.007Z,0.00
2019-02-17T05:39:51.997Z,0.00
2019-02-17T05:40:51.988Z,0.00
2019-02-17T05:41:51.982Z,0.00
2019-02-17T05:42:51.973Z,0.00
2019-02-17T05:43:51.967Z,0.00
2019-02-17T05:44:51.956Z,0.00
2019-02-17T05:45:51.952Z,0.00
2019-02-17T05:46:51.938Z,0.00
2019-02-17T05:47:51.932Z,0.00
2019-02-17T05:48:51.921Z,0.00
2019-02-17T05:49:51.913Z,0.00
2019-02-17T05:50:51.911Z,0.00
2019-02-17T05:51:51.896Z,0.00
2019-02-17T05:52:51.886Z,0.00
2019-02-17T05:53:51.880Z,0.00
2019-02-17T05:54:51.870Z,0.00
2019-02-17T05:55:51.863Z,0.00
2019-02-17T05:56:51.852Z,0.00
2019-02-17T05:57:51.844Z,0.00
2019-02-17T05:58:51.836Z,0.00
2019-02-17T05:59:51.827Z,0.00
2019-02-17T06:01:02.867Z,0.00
2019-02-17T06:01:51.811Z,0.00
2019-02-17T06:02:51.803Z,0.00
2019-02-17T06:03:51.794Z,0.00
2019-02-17T06:04:51.785Z,0.00
2019-02-17T06:05:51.777Z,0.00
2019-02-17T06:06:51.769Z,0.00
2019-02-17T06:07:51.760Z,0.00
2019-02-17T06:08:51.755Z,0.00
2019-02-17T06:09:51.811Z,4.00
2019-02-17T06:10:51.734Z,4.00
2019-02-17T06:11:51.726Z,0.00
2019-02-17T06:12:51.719Z,0.00
2019-02-17T06:13:51.709Z,4.00
2019-02-17T06:14:51.704Z,4.00
2019-02-17T06:15:51.693Z,0.00
2019-02-17T06:16:51.683Z,4.00
2019-02-17T06:17:51.676Z,4.00
2019-02-17T06:18:51.668Z,4.00
2019-02-17T06:19:51.658Z,8.00
2019-02-17T06:20:51.648Z,8.00
2019-02-17T06:21:51.641Z,8.00
2019-02-17T06:22:51.633Z,12.00
2019-02-17T06:23:51.625Z,16.00
2019-02-17T06:24:51.617Z,16.00
2019-02-17T06:25:51.612Z,20.00
2019-02-17T06:26:51.598Z,20.00
2019-02-17T06:27:51.597Z,28.00
2019-02-17T06:28:51.603Z,32.00
2019-02-17T06:29:51.573Z,36.00
2019-02-17T06:30:51.564Z,40.00
2019-02-17T06:31:51.557Z,48.00
2019-02-17T06:32:51.547Z,56.00
2019-02-17T06:33:51.537Z,64.00
2019-02-17T06:34:51.530Z,72.00
2019-02-17T06:35:51.521Z,76.00
2019-02-17T06:36:51.513Z,84.00
2019-02-17T06:37:51.504Z,92.00
2019-02-17T06:38:51.497Z,100.00
2019-02-17T06:39:51.487Z,104.00
2019-02-17T06:40:51.478Z,116.00
2019-02-17T06:41:51.469Z,124.00
2019-02-17T06:42:51.473Z,136.00
2019-02-17T06:43:51.454Z,144.00
2019-02-17T06:44:51.444Z,156.00
2019-02-17T06:45:51.440Z,164.00
2019-02-17T06:46:51.430Z,176.00
2019-02-17T06:47:51.418Z,188.00
2019-02-17T06:48:51.408Z,200.00
2019-02-17T06:49:51.402Z,216.00
2019-02-17T06:50:51.393Z,232.00
2019-02-17T06:51:51.383Z,248.00
2019-02-17T06:52:51.374Z,268.00
2019-02-17T06:53:51.365Z,292.00
2019-02-17T06:54:51.357Z,312.00
2019-02-17T06:55:51.349Z,340.00
2019-02-17T06:56:51.340Z,364.00
2019-02-17T06:57:51.331Z,392.00
2019-02-17T06:58:51.323Z,420.00
2019-02-17T06:59:51.314Z,452.00
2019-02-17T07:00:51.305Z,484.00
2019-02-17T07:01:51.297Z,524.00
2019-02-17T07:02:51.289Z,560.00
2019-02-17T07:03:51.311Z,596.00
2019-02-17T07:04:51.271Z,636.00
2019-02-17T07:05:51.286Z,672.00
2019-02-17T07:06:51.254Z,708.00
2019-02-17T07:07:51.246Z,744.00
2019-02-17T07:08:51.260Z,772.00
2019-02-17T07:09:51.229Z,804.00
2019-02-17T07:10:51.221Z,844.00
2019-02-17T07:11:51.217Z,888.00
2019-02-17T07:12:51.204Z,932.00
2019-02-17T07:13:51.194Z,976.00
2019-02-17T07:14:51.186Z,1012.00
2019-02-17T07:15:51.179Z,1048.00
2019-02-17T07:16:51.170Z,1076.00
2019-02-17T07:17:51.160Z,1108.00
2019-02-17T07:18:51.152Z,1140.00
2019-02-17T07:19:51.143Z,1172.00
2019-02-17T07:20:51.149Z,1208.00
2019-02-17T07:21:51.129Z,1232.00
2019-02-17T07:22:51.121Z,1256.00
2019-02-17T07:23:51.110Z,1280.00
2019-02-17T07:24:51.100Z,1304.00
2019-02-17T07:25:51.092Z,1328.00
2019-02-17T07:26:51.087Z,1360.00
2019-02-17T07:27:51.076Z,1380.00
2019-02-17T07:28:51.068Z,1404.00
2019-02-17T07:29:51.060Z,1440.00
2019-02-17T07:30:51.055Z,1472.00
2019-02-17T07:31:51.043Z,1504.00
2019-02-17T07:32:51.034Z,1536.00
2019-02-17T07:33:51.026Z,1580.00
2019-02-17T07:34:51.018Z,1628.00
2019-02-17T07:35:51.010Z,1680.00
2019-02-17T07:36:51.001Z,1732.00
2019-02-17T07:37:50.992Z,1788.00
2019-02-17T07:38:50.984Z,1848.00
2019-02-17T07:39:50.975Z,1908.00
2019-02-17T07:40:50.970Z,1960.00
2019-02-17T07:41:50.960Z,2016.00
2019-02-17T07:42:50.951Z,2076.00
2019-02-17T07:43:50.944Z,2136.00
2019-02-17T07:44:51.019Z,2184.00
2019-02-17T07:45:50.927Z,2232.00
2019-02-17T07:46:50.919Z,2280.00
2019-02-17T07:47:50.914Z,2324.00
2019-02-17T07:48:50.902Z,2356.00
2019-02-17T07:49:50.896Z,2412.00
2019-02-17T07:50:50.885Z,2476.00
2019-02-17T07:51:50.878Z,2532.00
2019-02-17T07:52:50.871Z,2576.00
2019-02-17T07:53:50.860Z,2616.00
2019-02-17T07:54:50.852Z,2624.00
2019-02-17T07:55:50.847Z,2632.00
2019-02-17T07:56:50.836Z,2684.00
2019-02-17T07:57:50.828Z,2756.00
2019-02-17T07:58:50.820Z,2812.00
2019-02-17T07:59:50.813Z,2836.00
2019-02-17T08:00:50.803Z,2868.00
2019-02-17T08:01:50.796Z,2872.00
2019-02-17T08:02:50.788Z,2868.00
2019-02-17T08:03:50.783Z,2876.00
2019-02-17T08:04:50.772Z,2884.00
2019-02-17T08:05:50.766Z,2924.00
2019-02-17T08:06:50.757Z,2944.00
2019-02-17T08:07:50.753Z,2964.00
2019-02-17T08:08:50.742Z,2996.00
2019-02-17T08:09:50.736Z,3012.00
2019-02-17T08:10:50.726Z,3032.00
2019-02-17T08:11:50.719Z,3056.00
2019-02-17T08:12:50.710Z,3088.00
2019-02-17T08:13:50.705Z,3100.00
2019-02-17T08:14:50.697Z,3136.00
2019-02-17T08:15:50.688Z,3140.00
2019-02-17T08:16:50.681Z,3052.00
2019-02-17T08:17:50.672Z,3044.00
2019-02-17T08:18:50.666Z,3032.00
2019-02-17T08:19:50.658Z,3164.00
2019-02-17T08:20:50.650Z,3180.00
2019-02-17T08:21:50.662Z,3212.00
2019-02-17T08:22:50.635Z,3260.00
2019-02-17T08:23:50.630Z,3344.00
2019-02-17T08:24:50.620Z,3404.00
2019-02-17T08:25:50.617Z,3444.00
2019-02-17T08:26:50.605Z,3460.00
2019-02-17T08:27:50.598Z,3492.00
2019-02-17T08:28:50.591Z,3508.00
2019-02-17T08:29:50.585Z,3524.00
2019-02-17T08:30:50.576Z,3548.00
2019-02-17T08:31:55.894Z,3564.00
2019-02-17T08:32:50.562Z,3580.00
2019-02-17T08:33:50.557Z,3612.00
2019-02-17T08:34:50.547Z,3704.00
2019-02-17T08:35:50.541Z,3832.00
2019-02-17T08:36:50.533Z,3856.00
2019-02-17T08:37:50.547Z,3784.00
2019-02-17T08:38:50.519Z,3748.00
2019-02-17T08:39:50.512Z,3704.00
2019-02-17T08:40:50.562Z,3604.00
2019-02-17T08:41:50.498Z,3604.00
2019-02-17T08:42:50.490Z,3740.00
2019-02-17T08:43:50.485Z,3800.00
2019-02-17T08:44:50.493Z,3840.00
2019-02-17T08:45:50.470Z,3872.00
2019-02-17T08:46:50.462Z,3948.00
2019-02-17T08:47:50.457Z,3964.00
2019-02-17T08:48:50.452Z,3928.00
2019-02-17T08:49:50.441Z,3888.00
2019-02-17T08:50:50.436Z,3868.00
2019-02-17T08:51:50.433Z,3840.00
2019-02-17T08:52:50.421Z,3804.00
2019-02-17T08:53:50.416Z,3752.00
2019-02-17T08:54:50.408Z,3804.00
2019-02-17T08:55:50.403Z,3832.00
2019-02-17T08:56:50.395Z,3824.00
2019-02-17T08:57:50.388Z,3792.00
2019-02-17T08:58:50.383Z,3680.00
2019-02-17T08:59:50.375Z,3596.00
2019-02-17T09:00:50.370Z,3612.00
2019-02-17T09:01:50.362Z,3648.00
2019-02-17T09:02:50.356Z,3716.00
2019-02-17T09:03:50.350Z,3812.00
2019-02-17T09:04:50.343Z,3900.00
2019-02-17T09:05:50.339Z,3952.00
2019-02-17T09:06:50.331Z,3972.00
2019-02-17T09:07:50.323Z,4020.00
2019-02-17T09:08:50.317Z,4044.00
2019-02-17T09:09:50.310Z,4072.00
2019-02-17T09:10:50.306Z,4156.00
2019-02-17T09:11:50.300Z,4196.00
2019-02-17T09:12:50.290Z,4236.00
2019-02-17T09:13:50.284Z,4280.00
2019-02-17T09:14:50.278Z,4140.00
2019-02-17T09:15:50.273Z,4284.00
2019-02-17T09:16:50.266Z,4328.00
2019-02-17T09:17:50.259Z,4404.00
2019-02-17T09:18:50.253Z,4464.00
2019-02-17T09:19:50.246Z,4440.00
2019-02-17T09:20:50.241Z,4464.00
2019-02-17T09:21:50.233Z,4548.00
2019-02-17T09:22:50.228Z,4552.00
2019-02-17T09:23:50.220Z,4580.00
2019-02-17T09:24:50.217Z,4564.00
2019-02-17T09:25:50.213Z,4612.00
2019-02-17T09:26:50.202Z,4600.00
2019-02-17T09:27:50.196Z,4592.00
2019-02-17T09:28:50.190Z,4608.00
2019-02-17T09:29:50.191Z,4688.00
2019-02-17T09:30:50.185Z,4664.00
2019-02-17T09:31:50.172Z,4580.00
2019-02-17T09:32:50.172Z,4576.00
2019-02-17T09:33:50.161Z,4500.00
2019-02-17T09:34:50.156Z,4476.00
2019-02-17T09:35:50.149Z,4524.00
2019-02-17T09:36:50.142Z,4476.00
2019-02-17T09:37:50.136Z,4544.00
2019-02-17T09:38:50.131Z,4628.00
2019-02-17T09:39:50.124Z,4580.00
2019-02-17T09:40:50.119Z,4608.00
2019-02-17T09:41:50.113Z,4776.00
2019-02-17T09:42:50.110Z,4820.00
2019-02-17T09:43:50.102Z,4848.00
2019-02-17T09:44:50.096Z,4728.00
2019-02-17T09:45:50.090Z,4748.00
2019-02-17T09:46:50.083Z,4868.00
2019-02-17T09:47:50.078Z,4936.00
2019-02-17T09:48:50.071Z,5012.00
2019-02-17T09:49:50.066Z,5052.00
2019-02-17T09:50:50.062Z,5120.00
2019-02-17T09:51:50.058Z,5244.00
2019-02-17T09:52:50.048Z,5348.00
2019-02-17T09:53:50.048Z,5388.00
2019-02-17T09:54:50.043Z,5428.00
2019-02-17T09:55:50.034Z,5448.00
2019-02-17T09:56:50.027Z,5544.00
2019-02-17T09:57:50.022Z,5656.00
2019-02-17T09:58:50.015Z,5792.00
2019-02-17T09:59:50.011Z,5984.00
2019-02-17T10:00:50.005Z,8356.00
2019-02-17T10:01:50.001Z,17408.00
2019-02-17T10:02:49.995Z,27328.00
2019-02-17T10:03:49.989Z,33376.00
2019-02-17T10:04:49.983Z,33696.00
2019-02-17T10:05:49.978Z,31072.00
2019-02-17T10:06:49.975Z,39744.00
2019-02-17T10:07:51.265Z,43776.00
2019-02-17T10:08:49.965Z,37248.00
2019-02-17T10:09:49.961Z,36544.00
2019-02-17T10:10:49.964Z,41856.00
2019-02-17T10:11:49.954Z,44736.00
2019-02-17T10:12:49.953Z,43328.00
2019-02-17T10:13:49.948Z,43680.00
2019-02-17T10:14:49.947Z,45152.00
2019-02-17T10:15:49.964Z,46528.00
2019-02-17T10:16:49.944Z,52384.00
2019-02-17T10:17:49.941Z,55232.00
2019-02-17T10:18:49.940Z,57248.00
2019-02-17T10:19:49.941Z,60352.00
2019-02-17T10:20:49.942Z,65376.00
2019-02-17T10:21:49.940Z,54240.00
2019-02-17T10:22:49.946Z,54144.00
2019-02-17T10:23:49.941Z,56352.00
2019-02-17T10:24:49.941Z,55872.00
2019-02-17T10:25:49.945Z,49792.00
2019-02-17T10:26:49.945Z,46528.00
2019-02-17T10:27:49.949Z,42912.00
2019-02-17T10:28:49.947Z,38304.00
2019-02-17T10:29:49.948Z,34784.00
2019-02-17T10:30:49.961Z,32544.00
2019-02-17T10:31:49.954Z,31008.00
2019-02-17T10:32:49.956Z,32256.00
2019-02-17T10:33:49.960Z,33824.00
2019-02-17T10:34:49.960Z,30464.00
2019-02-17T10:35:49.966Z,25120.00
2019-02-17T10:36:49.965Z,20000.00
2019-02-17T10:37:49.969Z,16736.00
2019-02-17T10:38:49.972Z,14892.00
2019-02-17T10:39:49.975Z,14028.00
2019-02-17T10:40:49.978Z,13408.00
2019-02-17T10:41:49.981Z,13164.00
2019-02-17T10:42:49.986Z,12516.00
2019-02-17T10:43:49.988Z,11192.00
2019-02-17T10:44:49.989Z,10112.00
2019-02-17T10:45:49.995Z,10184.00
2019-02-17T10:46:49.997Z,10516.00
2019-02-17T10:47:50.004Z,11092.00
2019-02-17T10:48:50.005Z,11148.00
2019-02-17T10:49:50.010Z,10988.00
2019-02-17T10:50:50.017Z,10676.00
2019-02-17T10:51:50.017Z,10640.00
2019-02-17T10:52:50.022Z,10068.00
2019-02-17T10:53:50.025Z,9640.00
2019-02-17T10:54:50.031Z,9576.00
2019-02-17T10:55:50.036Z,9420.00
2019-02-17T10:56:50.038Z,8992.00
2019-02-17T10:57:50.043Z,9120.00
2019-02-17T10:58:50.047Z,9468.00
2019-02-17T10:59:50.051Z,9380.00
2019-02-17T11:00:50.055Z,9076.00
2019-02-17T11:01:50.060Z,8612.00
2019-02-17T11:02:50.066Z,8408.00
2019-02-17T11:03:50.068Z,8440.00
2019-02-17T11:04:50.072Z,8364.00
2019-02-17T11:05:50.079Z,8376.00
2019-02-17T11:06:50.082Z,8720.00
2019-02-17T11:07:50.086Z,7736.00
2019-02-17T11:08:50.091Z,7252.00
2019-02-17T11:09:50.095Z,7948.00
2019-02-17T11:10:50.099Z,8692.00
2019-02-17T11:11:50.102Z,8464.00
2019-02-17T11:12:50.107Z,8376.00
2019-02-17T11:13:50.110Z,8228.00
2019-02-17T11:14:50.115Z,8124.00
2019-02-17T11:15:50.119Z,8368.00
2019-02-17T11:16:50.124Z,8248.00
2019-02-17T11:17:50.132Z,7976.00
2019-02-17T11:18:51.941Z,7832.00
2019-02-17T11:19:50.133Z,7060.00
2019-02-17T11:20:50.143Z,7316.00
2019-02-17T11:21:50.140Z,7056.00
2019-02-17T11:22:50.144Z,8152.00
2019-02-17T11:23:50.147Z,8144.00
2019-02-17T11:24:50.152Z,7968.00
2019-02-17T11:25:50.155Z,7964.00
2019-02-17T11:26:50.159Z,7924.00
2019-02-17T11:27:50.161Z,7612.00
2019-02-17T11:28:50.164Z,7504.00
2019-02-17T11:29:50.167Z,7480.00
2019-02-17T11:30:50.170Z,7280.00
2019-02-17T11:31:50.175Z,7460.00
2019-02-17T11:32:57.610Z,7256.00
2019-02-17T11:33:50.181Z,6600.00
2019-02-17T11:34:50.182Z,5068.00
2019-02-17T11:35:50.187Z,6800.00
2019-02-17T11:36:50.189Z,6056.00
2019-02-17T11:37:50.191Z,5516.00
2019-02-17T11:38:50.195Z,5904.00
2019-02-17T11:39:50.197Z,6172.00
2019-02-17T11:40:50.202Z,6252.00
2019-02-17T11:41:50.202Z,6064.00
2019-02-17T11:42:50.203Z,5956.00
2019-02-17T11:43:50.211Z,5916.00
2019-02-17T11:44:50.206Z,5736.00
2019-02-17T11:45:50.212Z,5632.00
2019-02-17T11:46:50.212Z,5716.00
2019-02-17T11:47:50.272Z,6260.00
2019-02-17T11:48:50.213Z,6252.00
2019-02-17T11:49:50.215Z,6204.00
2019-02-17T11:50:50.218Z,6212.00
2019-02-17T11:51:50.219Z,5588.00
2019-02-17T11:52:50.222Z,4924.00
2019-02-17T11:53:50.222Z,5304.00
2019-02-17T11:54:50.223Z,5476.00
2019-02-17T11:55:50.224Z,5528.00
2019-02-17T11:56:50.227Z,5376.00
2019-02-17T11:57:50.490Z,5368.00
2019-02-17T11:58:50.227Z,5948.00
2019-02-17T11:59:50.228Z,5952.00
2019-02-17T12:00:50.230Z,5408.00
2019-02-17T12:01:50.229Z,5112.00
2019-02-17T12:02:50.231Z,5008.00
2019-02-17T12:03:50.232Z,5064.00
2019-02-17T12:04:50.230Z,4976.00
2019-02-17T12:05:50.598Z,5136.00
2019-02-17T12:06:50.231Z,5196.00
2019-02-17T12:07:50.234Z,5460.00
2019-02-17T12:08:50.231Z,5720.00
2019-02-17T12:09:50.231Z,5448.00
2019-02-17T12:10:50.234Z,5076.00
2019-02-17T12:11:50.234Z,4900.00
2019-02-17T12:12:50.238Z,4800.00
2019-02-17T12:13:50.232Z,4876.00
2019-02-17T12:14:50.233Z,4972.00
2019-02-17T12:15:50.232Z,5040.00
2019-02-17T12:16:50.232Z,5028.00
2019-02-17T12:17:50.232Z,5004.00
2019-02-17T12:18:50.234Z,5000.00
2019-02-17T12:19:50.230Z,4940.00
2019-02-17T12:20:50.230Z,4976.00
2019-02-17T12:21:50.231Z,4984.00
2019-02-17T12:22:50.228Z,4968.00
2019-02-17T12:23:50.229Z,4988.00
2019-02-17T12:24:50.226Z,5016.00
2019-02-17T12:25:50.227Z,4960.00
2019-02-17T12:26:50.227Z,4984.00
2019-02-17T12:27:50.225Z,4968.00
2019-02-17T12:28:50.226Z,4992.00
2019-02-17T12:29:50.231Z,4992.00
2019-02-17T12:30:50.223Z,4944.00
2019-02-17T12:31:50.222Z,4828.00
2019-02-17T12:32:50.222Z,4780.00
2019-02-17T12:33:50.222Z,4732.00
2019-02-17T12:34:50.219Z,4728.00
2019-02-17T12:35:50.218Z,4720.00
2019-02-17T12:36:50.218Z,4676.00
2019-02-17T12:37:50.217Z,4664.00
2019-02-17T12:38:50.215Z,4580.00
2019-02-17T12:39:50.217Z,4504.00
2019-02-17T12:40:50.215Z,4388.00
2019-02-17T12:41:50.212Z,4360.00